Time;durP1;ratioP1;P1;durP2;ratioP2;P2;SDS_P1;SDS_P2;PMS_P1;PMS_P2;Temp;Humidity;BMP_temperature;BMP_pressure;BME280_temperature;BME280_humidity;BME280_pressure;Samples;Min_cycle;Max_cycle;Signal;HPM_P1;HPM_P2
2024/01/17 00:01:06;;;;;;;15.52;2.80;;;26.60;76.20;;;;;;5058870;28;20041;-89
2024/01/17 00:03:33;;;;;;;13.07;2.72;;;26.70;76.20;;;;;;5059269;28;20124;-93
2024/01/17 00:06:02;;;;;;;9.07;2.45;;;26.70;76.20;;;;;;5058974;28;20099;-87
2024/01/17 00:08:34;;;;;;;16.13;2.80;;;26.80;76.30;;;;;;5060924;28;20083;-90
2024/01/17 00:11:01;;;;;;;11.93;2.65;;;26.80;76.20;;;;;;5067804;28;20017;-83
2024/01/17 00:13:29;;;;;;;12.68;2.60;;;26.80;76.40;;;;;;5075912;28;20033;-84
2024/01/17 00:15:56;;;;;;;8.15;2.28;;;26.80;76.30;;;;;;5060329;28;20053;-90
2024/01/17 00:18:24;;;;;;;9.38;2.67;;;26.80;76.40;;;;;;5060105;28;20021;-92
2024/01/17 00:20:58;;;;;;;10.95;2.38;;;26.80;76.20;;;;;;5060033;28;20036;-91
2024/01/17 00:23:28;;;;;;;9.70;2.15;;;26.80;76.40;;;;;;5058504;28;20044;-90
2024/01/17 00:25:57;;;;;;;10.23;2.53;;;26.90;76.60;;;;;;5040682;28;20439;-90
2024/01/17 00:28:25;;;;;;;10.80;2.60;;;26.90;76.40;;;;;;5058211;28;20021;-93
2024/01/17 00:30:53;;;;;;;13.45;2.75;;;26.90;76.50;;;;;;5058712;28;20025;-91
2024/01/17 00:33:21;;;;;;;12.38;2.67;;;27.00;76.50;;;;;;5058165;28;20056;-92
2024/01/17 00:35:48;;;;;;;11.18;2.42;;;27.10;76.20;;;;;;5058081;28;20032;-91
2024/01/17 00:38:16;;;;;;;12.25;2.40;;;27.20;76.10;;;;;;5059062;28;20056;-90
2024/01/17 00:40:43;;;;;;;11.93;2.42;;;27.20;75.60;;;;;;5040198;28;20393;-92
2024/01/17 00:43:11;;;;;;;7.90;2.20;;;27.30;75.80;;;;;;5057598;28;20362;-85
2024/01/17 00:45:39;;;;;;;11.95;2.10;;;27.40;75.10;;;;;;5056335;28;20065;-88
2024/01/17 00:48:08;;;;;;;9.15;2.10;;;27.40;74.80;;;;;;5058096;28;20040;-88
2024/01/17 00:50:35;;;;;;;12.15;2.60;;;27.30;74.90;;;;;;5057947;28;20387;-87
2024/01/17 00:53:03;;;;;;;10.10;2.72;;;27.30;74.90;;;;;;5039384;28;20040;-86
2024/01/17 00:55:30;;;;;;;12.30;2.60;;;27.30;74.70;;;;;;5057644;28;20024;-86
2024/01/17 00:58:03;;;;;;;9.27;2.22;;;27.30;75.20;;;;;;5056987;28;20029;-89
2024/01/17 01:00:31;;;;;;;11.88;2.17;;;27.30;75.00;;;;;;5039420;28;20036;-92
2024/01/17 01:02:58;;;;;;;10.02;2.67;;;27.20;75.00;;;;;;5057472;28;20052;-85
2024/01/17 01:05:25;;;;;;;16.60;3.05;;;27.30;75.00;;;;;;5057314;28;20027;-89
2024/01/17 01:07:53;;;;;;;16.58;3.10;;;27.20;74.90;;;;;;5057771;28;20052;-89
2024/01/17 01:10:20;;;;;;;8.88;2.60;;;27.20;74.60;;;;;;5039799;28;20051;-88
2024/01/17 01:12:50;;;;;;;11.10;2.45;;;27.20;74.60;;;;;;5056910;28;20527;-86
2024/01/17 01:15:19;;;;;;;9.32;2.05;;;27.10;74.50;;;;;;5058099;28;20240;-87
2024/01/17 01:17:46;;;;;;;7.78;1.90;;;27.00;74.60;;;;;;5038554;28;20025;-81
2024/01/17 01:20:13;;;;;;;9.52;2.05;;;27.00;74.60;;;;;;5055108;28;20472;-80
2024/01/17 01:22:41;;;;;;;9.15;1.83;;;27.00;74.70;;;;;;5054976;28;20032;-80
2024/01/17 01:25:09;;;;;;;6.55;1.95;;;27.00;75.00;;;;;;5054936;28;20025;-81
2024/01/17 01:27:36;;;;;;;10.98;2.35;;;27.00;74.90;;;;;;5054827;28;20017;-81
2024/01/17 01:30:04;;;;;;;9.43;2.67;;;26.90;74.70;;;;;;5054694;28;20021;-80
2024/01/17 01:32:35;;;;;;;9.25;2.35;;;27.00;74.40;;;;;;5054481;28;20029;-84
2024/01/17 01:35:03;;;;;;;10.23;2.00;;;26.90;74.20;;;;;;5054969;28;20045;-80
2024/01/17 01:37:33;;;;;;;10.82;2.33;;;26.90;74.30;;;;;;5054745;28;20028;-81
2024/01/17 01:40:01;;;;;;;10.00;2.00;;;26.90;74.40;;;;;;5054616;28;20017;-81
2024/01/17 01:42:28;;;;;;;9.25;2.50;;;26.90;74.70;;;;;;5054464;28;20045;-81
2024/01/17 01:44:58;;;;;;;10.07;2.00;;;27.00;74.80;;;;;;5054507;28;20021;-81
2024/01/17 01:47:26;;;;;;;10.73;2.15;;;26.90;74.60;;;;;;5054974;28;20109;-82
2024/01/17 01:49:56;;;;;;;8.50;2.63;;;26.90;74.90;;;;;;5054101;28;20110;-80
2024/01/17 01:52:25;;;;;;;10.15;2.50;;;26.90;75.10;;;;;;5036258;28;20032;-80
2024/01/17 01:54:53;;;;;;;7.75;2.17;;;26.90;75.00;;;;;;5054359;28;20052;-81
2024/01/17 01:57:23;;;;;;;13.65;2.60;;;26.90;75.00;;;;;;5054141;28;20017;-80
2024/01/17 01:59:51;;;;;;;11.20;2.20;;;26.90;75.40;;;;;;5054354;28;20052;-81
2024/01/17 02:02:19;;;;;;;9.63;2.63;;;26.90;75.60;;;;;;5053144;28;20037;-81
2024/01/17 02:04:46;;;;;;;9.68;2.28;;;26.90;75.70;;;;;;5054381;28;20464;-83
2024/01/17 02:07:16;;;;;;;9.20;2.35;;;26.80;75.80;;;;;;5054551;28;20090;-82
2024/01/17 02:09:44;;;;;;;9.80;2.35;;;26.90;75.80;;;;;;5054146;28;20055;-84
2024/01/17 02:12:11;;;;;;;11.93;2.42;;;26.90;75.70;;;;;;5054418;28;20031;-80
2024/01/17 02:14:44;;;;;;;7.32;2.15;;;26.90;75.70;;;;;;5055160;28;20045;-81
2024/01/17 02:17:12;;;;;;;12.25;2.28;;;26.90;75.90;;;;;;5056771;28;20098;-93
2024/01/17 02:19:42;;;;;;;9.13;2.45;;;26.90;75.90;;;;;;5056828;28;20032;-85
2024/01/17 02:22:09;;;;;;;15.43;2.95;;;27.00;76.00;;;;;;5056353;28;20059;-93
2024/01/17 02:24:36;;;;;;;8.23;2.25;;;26.90;75.90;;;;;;5056400;28;20444;-92
2024/01/17 02:27:04;;;;;;;9.20;2.30;;;26.90;75.60;;;;;;5056563;28;20025;-93
2024/01/17 02:29:31;;;;;;;10.55;2.58;;;26.90;75.80;;;;;;5056750;28;20040;-92
2024/01/17 02:31:59;;;;;;;8.68;2.17;;;26.90;75.60;;;;;;5057799;28;20021;-90
2024/01/17 02:34:27;;;;;;;9.07;2.35;;;26.80;75.80;;;;;;5056850;28;20384;-86
2024/01/17 02:36:54;;;;;;;7.40;2.25;;;26.90;75.80;;;;;;5056884;28;20099;-89
2024/01/17 02:39:23;;;;;;;9.20;2.30;;;26.80;75.70;;;;;;5056475;28;20204;-92
2024/01/17 02:41:53;;;;;;;11.88;2.55;;;26.80;75.90;;;;;;5055795;28;20036;-87
2024/01/17 02:44:20;;;;;;;16.75;3.08;;;26.80;75.70;;;;;;5055139;28;20032;-85
2024/01/17 02:46:49;;;;;;;9.80;2.35;;;26.80;75.70;;;;;;5054403;28;20078;-92
2024/01/17 02:49:19;;;;;;;12.43;2.58;;;26.80;75.90;;;;;;5054838;28;20021;-85
2024/01/17 02:51:46;;;;;;;6.97;1.60;;;26.80;76.10;;;;;;5054436;28;20082;-86
2024/01/17 02:54:14;;;;;;;7.68;2.83;;;26.80;76.10;;;;;;5054338;28;20384;-89
2024/01/17 02:56:41;;;;;;;10.52;2.67;;;26.80;76.00;;;;;;5054321;28;20021;-85
2024/01/17 02:59:09;;;;;;;13.98;2.78;;;26.90;75.00;;;;;;5054051;28;20025;-82
2024/01/17 03:01:36;;;;;;;11.07;2.22;;;26.90;74.80;;;;;;5053957;28;20043;-87
2024/01/17 03:04:04;;;;;;;9.90;2.20;;;26.90;75.00;;;;;;5053926;28;20021;-90
2024/01/17 03:06:31;;;;;;;9.38;2.03;;;26.90;74.80;;;;;;5036450;28;20074;-89
2024/01/17 03:09:02;;;;;;;10.05;2.20;;;26.80;75.00;;;;;;5037087;28;20455;-85
2024/01/17 03:11:31;;;;;;;12.02;2.45;;;26.80;75.60;;;;;;5056655;28;20408;-87
2024/01/17 03:14:00;;;;;;;15.43;3.03;;;26.80;75.60;;;;;;5067699;28;20028;-84
2024/01/17 03:16:27;;;;;;;12.25;2.58;;;26.80;76.10;;;;;;5066123;28;20121;-90
2024/01/17 03:19:04;;;;;;;12.70;2.30;;;26.80;76.40;;;;;;5055530;28;20021;-88
2024/01/17 03:21:32;;;;;;;15.88;2.70;;;26.90;76.50;;;;;;5054776;28;20037;-90
2024/01/17 03:24:00;;;;;;;12.30;2.72;;;26.90;76.30;;;;;;5054701;28;20534;-92
2024/01/17 03:26:28;;;;;;;9.60;2.50;;;27.00;76.10;;;;;;5055390;28;20056;-92
2024/01/17 03:28:56;;;;;;;10.77;2.10;;;26.90;76.00;;;;;;5055304;28;20100;-85
2024/01/17 03:31:23;;;;;;;7.90;1.98;;;26.90;75.90;;;;;;5055261;28;20028;-92
2024/01/17 03:33:50;;;;;;;8.52;2.03;;;26.80;75.80;;;;;;5055042;28;20116;-89
2024/01/17 03:36:20;;;;;;;10.82;2.10;;;26.80;76.20;;;;;;5055317;28;20519;-85
2024/01/17 03:38:48;;;;;;;9.40;2.20;;;26.80;76.30;;;;;;5053908;28;20384;-82
2024/01/17 03:41:16;;;;;;;12.57;2.92;;;26.80;75.80;;;;;;5052787;28;20024;-84
2024/01/17 03:43:44;;;;;;;11.10;2.20;;;26.80;76.10;;;;;;5052181;28;20033;-81
2024/01/17 03:46:12;;;;;;;12.52;3.00;;;26.80;76.10;;;;;;5052680;28;20033;-81
2024/01/17 03:48:39;;;;;;;9.63;2.33;;;26.70;76.30;;;;;;5054000;28;20040;-85
2024/01/17 03:51:07;;;;;;;10.10;2.33;;;26.70;76.40;;;;;;5053737;28;20025;-84
2024/01/17 03:53:34;;;;;;;11.55;2.53;;;26.70;76.60;;;;;;5052299;28;20025;-82
2024/01/17 03:56:04;;;;;;;8.52;2.33;;;26.70;76.70;;;;;;5052782;28;20090;-83
2024/01/17 03:58:32;;;;;;;12.45;2.65;;;26.70;76.90;;;;;;5052962;28;20021;-84
2024/01/17 04:01:01;;;;;;;10.27;2.47;;;26.70;76.90;;;;;;5053272;28;20064;-82
2024/01/17 04:03:30;;;;;;;11.50;2.55;;;26.70;77.10;;;;;;5053608;28;20495;-87
2024/01/17 04:05:58;;;;;;;14.05;2.72;;;26.80;77.10;;;;;;5053571;28;20489;-89
2024/01/17 04:08:25;;;;;;;13.25;2.53;;;26.70;77.10;;;;;;5052177;28;20037;-82
2024/01/17 04:10:53;;;;;;;14.23;2.45;;;26.70;76.90;;;;;;5052886;28;20028;-83
2024/01/17 04:13:20;;;;;;;11.80;2.47;;;26.70;76.70;;;;;;5052779;28;20028;-85
2024/01/17 04:15:47;;;;;;;11.90;2.40;;;26.60;76.60;;;;;;5052557;28;20505;-80
2024/01/17 04:18:15;;;;;;;11.90;2.67;;;26.50;76.80;;;;;;5052926;28;20029;-84
2024/01/17 04:20:43;;;;;;;11.88;2.72;;;26.50;77.10;;;;;;5053773;28;20021;-91
2024/01/17 04:23:10;;;;;;;13.57;3.15;;;26.40;77.20;;;;;;5053609;28;20052;-87
2024/01/17 04:25:38;;;;;;;10.90;2.28;;;26.40;77.40;;;;;;5053867;28;20055;-89
2024/01/17 04:28:10;;;;;;;12.48;2.67;;;26.30;77.60;;;;;;5053934;28;20029;-90
2024/01/17 04:30:38;;;;;;;17.33;3.80;;;26.30;77.60;;;;;;5053662;28;20032;-88
2024/01/17 04:33:09;;;;;;;11.15;2.70;;;26.30;77.70;;;;;;5053681;28;20467;-89
2024/01/17 04:35:36;;;;;;;13.02;2.50;;;26.30;77.80;;;;;;5053477;28;20057;-87
2024/01/17 04:38:04;;;;;;;16.02;2.60;;;26.30;77.70;;;;;;5053522;28;20476;-87
2024/01/17 04:40:31;;;;;;;9.13;2.58;;;26.30;77.80;;;;;;5053498;28;20106;-88
2024/01/17 04:42:59;;;;;;;14.43;3.20;;;26.20;78.10;;;;;;5053921;28;20693;-89
2024/01/17 04:45:30;;;;;;;11.13;2.72;;;26.20;78.40;;;;;;5053663;28;20032;-86
2024/01/17 04:47:57;;;;;;;12.68;2.95;;;26.20;78.50;;;;;;5056085;28;20032;-86
2024/01/17 04:50:25;;;;;;;10.05;2.50;;;26.20;78.70;;;;;;5056960;28;20027;-85
2024/01/17 04:52:52;;;;;;;9.68;2.58;;;26.20;79.20;;;;;;5056727;28;20056;-88
2024/01/17 04:55:20;;;;;;;16.83;2.97;;;26.20;79.30;;;;;;5056677;28;20021;-90
2024/01/17 04:57:49;;;;;;;14.98;3.35;;;26.10;79.70;;;;;;5056835;28;20082;-90
2024/01/17 05:00:18;;;;;;;10.77;2.75;;;26.10;79.60;;;;;;5056703;28;20024;-89
2024/01/17 05:02:46;;;;;;;9.05;2.70;;;26.10;79.90;;;;;;5056264;28;20033;-89
2024/01/17 05:05:13;;;;;;;13.13;2.53;;;26.00;80.10;;;;;;5056178;28;20503;-87
2024/01/17 05:07:44;;;;;;;12.07;2.70;;;26.00;80.20;;;;;;5056352;28;20029;-86
2024/01/17 05:10:13;;;;;;;15.63;2.95;;;25.90;80.40;;;;;;5055681;28;20384;-88
2024/01/17 05:12:43;;;;;;;8.65;2.10;;;25.90;80.60;;;;;;5055409;28;20021;-86
2024/01/17 05:15:11;;;;;;;11.38;2.67;;;25.80;80.60;;;;;;5055299;28;20044;-84
2024/01/17 05:17:38;;;;;;;10.57;2.78;;;25.80;80.80;;;;;;5055395;28;20029;-87
2024/01/17 05:20:07;;;;;;;12.23;2.95;;;25.80;81.20;;;;;;5055181;28;20492;-88
2024/01/17 05:22:39;;;;;;;11.88;3.00;;;25.80;81.30;;;;;;5055347;28;20082;-90
2024/01/17 05:25:08;;;;;;;12.57;2.50;;;25.80;81.60;;;;;;5055309;28;20512;-83
2024/01/17 05:27:38;;;;;;;14.70;2.90;;;25.70;81.60;;;;;;5055048;28;20044;-90
2024/01/17 05:30:09;;;;;;;12.55;2.53;;;25.60;81.80;;;;;;5054929;28;20082;-86
2024/01/17 05:32:38;;;;;;;11.73;3.67;;;25.50;81.90;;;;;;5055441;28;20384;-87
2024/01/17 05:35:06;;;;;;;20.00;3.30;;;25.30;82.20;;;;;;5055146;28;20024;-86
2024/01/17 05:37:33;;;;;;;11.23;2.88;;;25.30;82.60;;;;;;5055124;28;20021;-83
2024/01/17 05:40:01;;;;;;;14.95;2.88;;;25.20;83.00;;;;;;5055180;28;20017;-84
2024/01/17 05:42:28;;;;;;;9.45;2.13;;;25.10;83.30;;;;;;5037565;28;20115;-84
2024/01/17 05:44:55;;;;;;;10.48;2.83;;;25.10;83.40;;;;;;5055580;28;20029;-84
2024/01/17 05:47:23;;;;;;;7.50;2.17;;;25.00;83.70;;;;;;5056070;28;20476;-88
2024/01/17 05:49:51;;;;;;;13.55;3.08;;;25.00;83.80;;;;;;5056431;28;20013;-85
2024/01/17 05:52:18;;;;;;;12.27;2.60;;;25.00;84.00;;;;;;5055513;28;20028;-84
2024/01/17 05:54:46;;;;;;;14.88;3.13;;;24.90;84.20;;;;;;5054524;28;20021;-85
2024/01/17 05:57:14;;;;;;;10.68;2.65;;;24.90;84.30;;;;;;5054383;28;20035;-85
2024/01/17 05:59:42;;;;;;;14.23;2.65;;;24.80;84.60;;;;;;5054414;28;20036;-84
2024/01/17 06:02:10;;;;;;;12.27;2.75;;;24.80;84.80;;;;;;5054702;28;20033;-85
2024/01/17 06:04:40;;;;;;;14.43;3.28;;;24.80;85.00;;;;;;5054476;28;20024;-85
2024/01/17 06:07:07;;;;;;;11.60;2.88;;;24.80;85.10;;;;;;5054595;28;20427;-85
2024/01/17 06:09:35;;;;;;;11.98;2.78;;;24.70;85.40;;;;;;5053196;28;20029;-87
2024/01/17 06:12:02;;;;;;;13.85;3.00;;;24.70;85.60;;;;;;5036819;28;20388;-84
2024/01/17 06:14:30;;;;;;;14.50;3.72;;;24.70;85.60;;;;;;5036624;28;20369;-84
2024/01/17 06:16:59;;;;;;;14.23;3.45;;;24.70;85.70;;;;;;5055560;28;20094;-87
2024/01/17 06:19:27;;;;;;;12.18;3.00;;;24.60;85.90;;;;;;5055173;28;20036;-85
2024/01/17 06:21:55;;;;;;;12.43;2.58;;;24.60;86.00;;;;;;5054079;28;20032;-84
2024/01/17 06:24:23;;;;;;;11.45;2.70;;;24.60;86.20;;;;;;5054201;28;20017;-85
2024/01/17 06:26:51;;;;;;;11.68;3.05;;;24.50;86.20;;;;;;5053973;28;20025;-83
2024/01/17 06:29:18;;;;;;;10.70;2.58;;;24.50;86.40;;;;;;5053927;28;20027;-85
2024/01/17 06:31:46;;;;;;;17.90;3.83;;;24.50;86.50;;;;;;5054182;28;20079;-84
2024/01/17 06:34:13;;;;;;;13.15;3.35;;;24.50;86.70;;;;;;5053979;28;20048;-88
2024/01/17 06:36:41;;;;;;;10.38;3.45;;;24.50;86.50;;;;;;5053882;28;20112;-85
2024/01/17 06:39:10;;;;;;;17.50;3.47;;;24.50;86.70;;;;;;5036029;28;20380;-84
2024/01/17 06:41:38;;;;;;;15.75;3.38;;;24.50;86.80;;;;;;5053662;28;20041;-84
2024/01/17 06:44:09;;;;;;;10.38;2.72;;;24.50;86.80;;;;;;5053580;28;20467;-84
2024/01/17 06:46:37;;;;;;;16.17;3.13;;;24.50;87.00;;;;;;5053583;28;20079;-85
2024/01/17 06:49:04;;;;;;;10.20;2.80;;;24.40;87.10;;;;;;5053716;28;20101;-85
2024/01/17 06:51:32;;;;;;;10.68;3.20;;;24.40;87.20;;;;;;5053648;28;20067;-85
2024/01/17 06:53:59;;;;;;;11.43;3.10;;;24.40;87.20;;;;;;5053375;28;20112;-83
2024/01/17 06:56:32;;;;;;;11.32;2.75;;;24.40;87.30;;;;;;5053532;28;20025;-84
2024/01/17 06:59:00;;;;;;;13.25;3.05;;;24.40;87.20;;;;;;5053443;28;20017;-86
2024/01/17 07:01:28;;;;;;;14.68;3.95;;;24.30;87.30;;;;;;5053457;28;20028;-84
2024/01/17 07:03:56;;;;;;;17.77;3.78;;;24.30;87.40;;;;;;5052974;28;20052;-83
2024/01/17 07:06:24;;;;;;;10.98;3.00;;;24.30;87.70;;;;;;5052988;28;20024;-85
2024/01/17 07:08:53;;;;;;;11.68;2.70;;;24.30;87.50;;;;;;5052097;28;20018;-83
2024/01/17 07:11:20;;;;;;;12.10;3.15;;;24.30;87.70;;;;;;5052314;28;20032;-83
2024/01/17 07:13:48;;;;;;;18.42;4.28;;;24.20;87.80;;;;;;5052482;28;20021;-85
2024/01/17 07:16:15;;;;;;;14.48;3.55;;;24.20;87.90;;;;;;5052523;28;20037;-86
2024/01/17 07:18:43;;;;;;;17.15;4.65;;;24.10;88.20;;;;;;5052590;28;20108;-84
2024/01/17 07:21:11;;;;;;;15.80;3.60;;;24.10;88.40;;;;;;5052400;28;20037;-84
2024/01/17 07:23:43;;;;;;;16.98;4.07;;;24.00;88.50;;;;;;5052488;28;20376;-84
2024/01/17 07:26:11;;;;;;;12.68;3.00;;;24.00;88.90;;;;;;5052419;28;20032;-83
2024/01/17 07:28:38;;;;;;;15.65;4.45;;;23.90;88.90;;;;;;5052375;28;20558;-84
2024/01/17 07:31:05;;;;;;;12.45;3.80;;;23.80;89.00;;;;;;5052490;28;20032;-84
2024/01/17 07:33:33;;;;;;;14.60;3.90;;;23.80;89.20;;;;;;5052272;28;20025;-83
2024/01/17 07:36:00;;;;;;;14.73;3.88;;;23.70;89.50;;;;;;5052235;28;20365;-83
2024/01/17 07:38:27;;;;;;;15.43;3.60;;;23.70;89.60;;;;;;5052336;28;20488;-84
2024/01/17 07:40:58;;;;;;;14.27;3.35;;;23.70;90.00;;;;;;5051865;28;20035;-85
2024/01/17 07:43:25;;;;;;;11.55;3.45;;;23.70;89.90;;;;;;5052112;28;20032;-83
2024/01/17 07:45:52;;;;;;;8.98;2.88;;;23.70;90.10;;;;;;5051959;28;20029;-85
2024/01/17 07:48:20;;;;;;;7.63;2.53;;;23.60;90.00;;;;;;5052096;28;20021;-84
2024/01/17 07:50:47;;;;;;;11.63;2.88;;;23.60;90.20;;;;;;5052306;28;20036;-84
2024/01/17 07:53:16;;;;;;;9.27;2.60;;;23.50;90.30;;;;;;5052095;28;20028;-85
2024/01/17 07:55:43;;;;;;;9.90;3.20;;;23.50;90.60;;;;;;5051844;28;20025;-84
2024/01/17 07:58:11;;;;;;;12.30;3.00;;;23.50;90.60;;;;;;5034207;28;20029;-84
2024/01/17 08:00:39;;;;;;;9.65;2.88;;;23.50;90.70;;;;;;5051932;28;20484;-85
2024/01/17 08:03:06;;;;;;;12.38;3.15;;;23.50;90.90;;;;;;5052105;28;20115;-85
2024/01/17 08:05:37;;;;;;;8.63;2.60;;;23.50;91.00;;;;;;5052156;28;20025;-84
2024/01/17 08:08:09;;;;;;;9.95;2.70;;;23.50;91.00;;;;;;5051822;28;20489;-84
2024/01/17 08:10:37;;;;;;;10.73;2.90;;;23.50;91.10;;;;;;5051706;28;20028;-86
2024/01/17 08:13:05;;;;;;;10.20;2.95;;;23.40;91.10;;;;;;5051953;28;20036;-85
2024/01/17 08:15:32;;;;;;;8.30;2.97;;;23.40;91.40;;;;;;5051965;28;20083;-84
2024/01/17 08:18:01;;;;;;;11.02;3.13;;;23.40;91.30;;;;;;5051734;28;20028;-85
2024/01/17 08:20:31;;;;;;;9.82;2.83;;;23.30;91.40;;;;;;5052396;28;20476;-85
2024/01/17 08:22:58;;;;;;;9.00;2.85;;;23.40;91.70;;;;;;5055655;28;20036;-85
2024/01/17 08:25:26;;;;;;;13.50;3.25;;;23.40;91.50;;;;;;5055605;28;20487;-86
2024/01/17 08:27:54;;;;;;;6.57;3.00;;;23.40;91.60;;;;;;5037772;28;20039;-86
2024/01/17 08:30:21;;;;;;;13.20;3.05;;;23.40;91.80;;;;;;5055656;28;20432;-86
2024/01/17 08:32:49;;;;;;;15.43;2.83;;;23.40;91.80;;;;;;5055645;28;20117;-84
2024/01/17 08:35:16;;;;;;;11.80;2.83;;;23.40;91.80;;;;;;5055518;28;20482;-86
2024/01/17 08:37:43;;;;;;;8.63;2.58;;;23.30;91.90;;;;;;5055320;28;20460;-86
2024/01/17 08:40:11;;;;;;;8.15;2.55;;;23.30;91.90;;;;;;5055245;28;20053;-86
2024/01/17 08:42:39;;;;;;;9.65;2.70;;;23.30;91.90;;;;;;5055353;28;20037;-85
2024/01/17 08:45:07;;;;;;;9.40;3.05;;;23.30;92.10;;;;;;5055376;28;20045;-87
2024/01/17 08:47:34;;;;;;;13.68;3.13;;;23.30;92.00;;;;;;5055413;28;20021;-86
2024/01/17 08:50:02;;;;;;;12.07;3.05;;;23.30;92.10;;;;;;5054880;28;20025;-87
2024/01/17 08:52:30;;;;;;;10.27;2.80;;;23.30;92.20;;;;;;5055254;28;20538;-86
2024/01/17 08:55:00;;;;;;;15.23;3.22;;;23.30;92.10;;;;;;5037019;28;20029;-84
2024/01/17 08:57:28;;;;;;;12.18;3.47;;;23.30;92.20;;;;;;5053922;28;20064;-86
2024/01/17 08:59:55;;;;;;;18.65;3.65;;;23.30;92.10;;;;;;5054989;28;20139;-84
2024/01/17 09:02:23;;;;;;;16.90;3.17;;;23.30;92.30;;;;;;5054796;28;20126;-87
2024/01/17 09:04:50;;;;;;;12.35;3.50;;;23.30;92.20;;;;;;5054920;28;20532;-86
2024/01/17 09:07:17;;;;;;;13.70;3.35;;;23.30;92.20;;;;;;5054990;28;20021;-87
2024/01/17 09:09:46;;;;;;;12.07;3.35;;;23.20;92.30;;;;;;5054512;28;20028;-86
2024/01/17 09:12:17;;;;;;;10.20;2.95;;;23.20;92.30;;;;;;5036903;28;20572;-86
2024/01/17 09:14:47;;;;;;;13.63;2.70;;;23.20;92.30;;;;;;5054718;28;20377;-86
2024/01/17 09:17:14;;;;;;;13.52;2.83;;;23.20;92.50;;;;;;5054826;28;20027;-86
2024/01/17 09:19:43;;;;;;;9.65;2.80;;;23.20;92.40;;;;;;5054540;28;20032;-87
2024/01/17 09:22:10;;;;;;;11.82;3.17;;;23.20;92.50;;;;;;5054988;28;20502;-88
2024/01/17 09:24:40;;;;;;;12.98;2.97;;;23.20;92.50;;;;;;5058749;28;20108;-87
2024/01/17 09:27:07;;;;;;;13.63;3.03;;;23.20;92.50;;;;;;5054470;28;20033;-86
2024/01/17 09:29:35;;;;;;;13.93;3.60;;;23.20;92.50;;;;;;5054676;28;20047;-84
2024/01/17 09:32:04;;;;;;;15.13;2.63;;;23.20;92.50;;;;;;5053722;28;20056;-84
2024/01/17 09:34:36;;;;;;;10.77;2.83;;;23.20;92.60;;;;;;5054357;28;20063;-84
2024/01/17 09:37:05;;;;;;;10.77;2.83;;;23.20;92.60;;;;;;5054329;28;20027;-85
2024/01/17 09:39:32;;;;;;;12.63;3.08;;;23.20;92.70;;;;;;5054226;28;20070;-84
2024/01/17 09:42:02;;;;;;;10.15;2.75;;;23.20;92.80;;;;;;5053899;28;20379;-84
2024/01/17 09:44:30;;;;;;;12.13;2.72;;;23.30;92.60;;;;;;5054079;28;20448;-85
2024/01/17 09:47:06;;;;;;;12.05;2.75;;;23.20;92.70;;;;;;5054067;28;20104;-87
2024/01/17 09:49:34;;;;;;;11.02;2.53;;;23.20;92.70;;;;;;5053991;28;20040;-84
2024/01/17 09:52:10;;;;;;;16.20;2.92;;;23.20;92.70;;;;;;5053826;28;20143;-86
2024/01/17 09:54:42;;;;;;;13.07;2.90;;;23.20;92.80;;;;;;5053868;28;20090;-86
2024/01/17 09:58:00;;;;;;;11.38;2.95;;;23.20;92.80;;;;;;5053411;28;20369;-87
2024/01/17 10:04:04;;;;;;;11.00;2.83;;;23.20;92.80;;;;;;5043062;28;20045;-86
2024/01/17 10:06:52;;;;;;;10.45;2.60;;;23.20;92.80;;;;;;5046413;28;20038;-85
2024/01/17 10:09:34;;;;;;;;;;;;;;;;;;;;;
2024/01/17 10:12:06;;;;;;;12.82;2.40;;;23.20;92.90;;;;;;5053465;28;20285;-84
2024/01/17 10:15:07;;;;;;;5.80;2.08;;;23.20;92.80;;;;;;5053804;28;20045;-85
2024/01/17 10:17:37;;;;;;;9.93;2.20;;;23.20;92.90;;;;;;5053625;28;20178;-84
2024/01/17 10:20:22;;;;;;;10.05;3.05;;;23.10;92.90;;;;;;5054028;28;20040;-85
2024/01/17 10:23:08;;;;;;;8.18;2.55;;;23.10;92.90;;;;;;5052883;28;20488;-85
2024/01/17 10:25:47;;;;;;;10.85;2.70;;;23.10;92.90;;;;;;5053675;28;20035;-84
2024/01/17 10:28:17;;;;;;;6.45;2.70;;;23.10;93.00;;;;;;5053717;28;20024;-86
2024/01/17 10:30:48;;;;;;;9.35;2.53;;;23.10;93.10;;;;;;5053696;28;20024;-87
2024/01/17 10:33:48;;;;;;;10.25;2.60;;;23.10;93.10;;;;;;5053479;28;20017;-85
2024/01/17 10:36:16;;;;;;;10.10;2.60;;;23.20;93.30;;;;;;5045440;28;20368;-86
2024/01/17 10:39:11;;;;;;;9.45;2.30;;;23.10;93.20;;;;;;5053387;28;20531;-87
2024/01/17 10:45:29;;;;;;;;;;;;;;;;;;;;;
2024/01/17 10:51:19;;;;;;;;;;;;;;;;;;;;;
2024/01/17 10:57:53;;;;;;;;;;;;;;;;;;;;;
2024/01/17 11:00:43;;;;;;;10.43;2.78;;;23.10;93.40;;;;;;5049026;28;20033;-86
2024/01/17 11:03:42;;;;;;;;;;;;;;;;;;;;;
2024/01/17 11:09:28;;;;;;;11.43;3.25;;;23.10;93.50;;;;;;5010367;28;20041;-86
2024/01/17 11:12:00;;;;;;;11.52;3.40;;;23.10;93.50;;;;;;5030615;28;20054;-82
2024/01/17 11:14:31;;;;;;;12.57;3.05;;;23.10;93.60;;;;;;5013880;28;20049;-82
2024/01/17 11:17:03;;;;;;;10.57;3.28;;;23.10;93.70;;;;;;5030549;28;20056;-83
2024/01/17 11:19:38;;;;;;;9.50;3.28;;;23.10;93.70;;;;;;5030768;28;20068;-83
2024/01/17 11:22:08;;;;;;;14.05;3.90;;;23.10;93.70;;;;;;5030339;28;20095;-86
2024/01/17 11:25:02;;;;;;;12.20;4.13;;;23.10;93.80;;;;;;5030454;28;20112;-83
2024/01/17 11:27:57;;;;;;;9.52;3.88;;;23.10;93.80;;;;;;5030576;28;20033;-85
2024/01/17 11:30:33;;;;;;;12.50;3.75;;;23.10;93.80;;;;;;5030524;28;20029;-83
2024/01/17 11:33:11;;;;;;;18.17;3.45;;;23.10;94.00;;;;;;5030801;28;20041;-81
2024/01/17 11:35:46;;;;;;;16.40;3.90;;;23.20;93.90;;;;;;5030666;28;20021;-83
2024/01/17 11:38:15;;;;;;;;;;;23.10;93.80;;;;;;5030723;28;20056;-81
2024/01/17 11:40:43;;;;;;;4.95;1.45;;;23.10;93.80;;;;;;5030222;28;19948;-83
2024/01/17 11:43:10;;;;;;;4.60;0.90;;;23.00;93.80;;;;;;5030368;28;20033;-82
2024/01/17 11:45:38;;;;;;;3.45;1.02;;;23.00;94.00;;;;;;5013611;28;20025;-81
2024/01/17 11:48:18;;;;;;;2.58;1.10;;;23.00;94.00;;;;;;5050530;28;20404;-84
2024/01/17 11:51:15;;;;;;;1.45;1.10;;;23.00;94.00;;;;;;5034244;28;20033;-81
2024/01/17 11:53:50;;;;;;;2.58;1.23;;;23.00;94.00;;;;;;5039469;28;20527;-83
2024/01/17 11:56:24;;;;;;;2.80;1.48;;;23.00;94.10;;;;;;5036333;28;20029;-84
2024/01/17 11:58:57;;;;;;;3.05;1.30;;;23.00;94.10;;;;;;5056256;28;20029;-83
2024/01/17 12:01:27;;;;;;;2.17;1.10;;;23.00;94.10;;;;;;5056458;28;20120;-81
2024/01/17 12:03:55;;;;;;;2.47;1.33;;;23.00;94.10;;;;;;5056204;28;20035;-82
2024/01/17 12:06:22;;;;;;;1.63;1.30;;;23.00;94.30;;;;;;5056415;28;20025;-82
2024/01/17 12:08:54;;;;;;;1.38;1.08;;;23.00;94.20;;;;;;5056329;28;20488;-83
2024/01/17 12:11:22;;;;;;;2.22;1.35;;;23.00;94.20;;;;;;5056417;28;20032;-81
2024/01/17 12:13:53;;;;;;;1.80;1.20;;;23.10;94.30;;;;;;5056761;28;20079;-82
2024/01/17 12:16:23;;;;;;;1.35;1.20;;;23.10;94.30;;;;;;5056718;28;20048;-81
2024/01/17 12:19:00;;;;;;;1.85;1.45;;;23.10;94.30;;;;;;5057510;28;20049;-82
2024/01/17 12:21:29;;;;;;;4.00;1.60;;;23.10;94.30;;;;;;5056582;28;20071;-83
2024/01/17 12:23:57;;;;;;;2.38;1.55;;;23.10;94.30;;;;;;5056047;28;20033;-85
2024/01/17 12:26:26;;;;;;;3.42;1.65;;;23.10;94.30;;;;;;5056111;28;20032;-82
2024/01/17 12:29:10;;;;;;;3.55;1.70;;;23.10;94.40;;;;;;5056015;28;20051;-82
2024/01/17 12:31:38;;;;;;;3.08;1.73;;;23.10;94.40;;;;;;5056045;28;20361;-85
2024/01/17 12:34:10;;;;;;;2.65;1.50;;;23.10;94.40;;;;;;5055785;28;20079;-87
2024/01/17 12:36:39;;;;;;;4.47;2.25;;;23.10;94.40;;;;;;5038164;28;20078;-84
2024/01/17 12:39:08;;;;;;;5.22;2.00;;;23.20;94.40;;;;;;5055745;28;20051;-83
2024/01/17 12:41:36;;;;;;;4.10;2.00;;;23.20;94.40;;;;;;5055794;28;20028;-82
2024/01/17 12:44:07;;;;;;;4.18;1.80;;;23.20;94.50;;;;;;5055843;28;20025;-86
2024/01/17 12:46:35;;;;;;;3.63;1.80;;;23.10;94.50;;;;;;5055611;28;20415;-83
2024/01/17 12:49:03;;;;;;;3.80;1.77;;;23.20;94.50;;;;;;5055789;28;20033;-87
2024/01/17 12:51:33;;;;;;;5.40;2.33;;;23.20;94.50;;;;;;5055513;28;20483;-86
2024/01/17 12:54:06;;;;;;;2.70;1.80;;;23.20;94.60;;;;;;5055299;28;20021;-86
2024/01/17 12:56:35;;;;;;;3.30;2.17;;;23.20;94.50;;;;;;5055550;28;20025;-82
2024/01/17 12:59:02;;;;;;;4.00;1.67;;;23.10;94.50;;;;;;5055457;28;20520;-87
2024/01/17 13:01:31;;;;;;;2.83;1.95;;;23.20;94.60;;;;;;5055237;28;20175;-86
2024/01/17 13:04:05;;;;;;;4.03;1.70;;;23.20;94.50;;;;;;5055257;28;20029;-85
2024/01/17 13:06:57;;;;;;;3.33;1.92;;;23.10;94.60;;;;;;5055044;28;20039;-84
2024/01/17 13:09:28;;;;;;;4.15;2.05;;;23.10;94.50;;;;;;5054926;28;20492;-82
2024/01/17 13:11:56;;;;;;;3.83;1.58;;;23.20;94.60;;;;;;5055120;28;20021;-84
2024/01/17 13:14:24;;;;;;;1.80;1.50;;;23.10;94.60;;;;;;5054936;28;20429;-84
2024/01/17 13:16:53;;;;;;;1.75;1.40;;;23.10;94.60;;;;;;5055236;28;20029;-84